Time;durP1;ratioP1;P1;durP2;ratioP2;P2;SDS_P1;SDS_P2;PMS_P1;PMS_P2;Temp;Humidity;BMP_temperature;BMP_pressure;BME280_temperature;BME280_humidity;BME280_pressure;Samples;Min_cycle;Max_cycle;Signal;HPM_P1;HPM_P2
2022/10/13 00:01:20;;;;;;;;;;;;;;;;;;5060674;28;1032;-70
2022/10/13 00:03:46;;;;;;;;;;;;;;;;;;5059567;28;1116;-69
2022/10/13 00:06:12;;;;;;;;;;;;;;;;;;5060289;28;1902;-70
2022/10/13 00:08:37;;;;;;;;;;;;;;;;;;5061012;28;894;-69
2022/10/13 00:11:08;;;;;;;;;;;;;;;;;;5060559;28;858;-70
2022/10/13 00:13:33;;;;;;;;;;;;;;;;;;5060803;28;1044;-69
2022/10/13 00:16:01;;;;;;;;;;;;;;;;;;5060207;28;1251;-70
2022/10/13 00:18:26;;;;;;;;;;;;;;;;;;5060845;28;819;-70
2022/10/13 00:20:51;;;;;;;;;;;;;;;;;;5060473;28;1052;-69
2022/10/13 00:23:16;;;;;;;;;;;;;;;;;;5060583;28;799;-69
2022/10/13 00:25:46;;;;;;;;;;;;;;;;;;5060033;28;1898;-69
2022/10/13 00:28:11;;;;;;;;;;;;;;;;;;5060684;28;811;-69
2022/10/13 00:30:37;;;;;;;;;;;;;;;;;;5058939;28;1315;-69
2022/10/13 00:33:03;;;;;;;;;;;;;;;;;;5060774;28;799;-70
2022/10/13 00:35:28;;;;;;;;;;;;;;;;;;5060223;28;1203;-69
2022/10/13 00:37:53;;;;;;;;;;;;;;;;;;5060362;28;1009;-69
2022/10/13 00:40:18;;;;;;;;;;;;;;;;;;5060311;28;942;-69
2022/10/13 00:42:43;;;;;;;;;;;;;;;;;;5060247;28;803;-69
2022/10/13 00:45:18;;;;;;;;;;;;;;;;;;5059951;28;1902;-68
2022/10/13 00:47:44;;;;;;;;;;;;;;;;;;5060509;28;925;-69
2022/10/13 00:50:13;;;;;;;;;;;;;;;;;;5060303;28;886;-70
2022/10/13 00:52:40;;;;;;;;;;;;;;;;;;5061763;28;846;-69
2022/10/13 00:55:06;;;;;;;;;;;;;;;;;;5063568;28;1180;-69
2022/10/13 00:57:32;;;;;;;;;;;;;;;;;;5063568;28;870;-69
2022/10/13 00:59:57;;;;;;;;;;;;;;;;;;5063735;28;909;-69
2022/10/13 01:02:23;;;;;;;;;;;;;;;;;;5063287;28;993;-69
2022/10/13 01:04:50;;;;;;;;;;;;;;;;;;5063514;28;2019;-69
2022/10/13 01:07:17;;;;;;;;;;;;;;;;;;5063436;28;1007;-69
2022/10/13 01:09:44;;;;;;;;;;;;;;;;;;5063344;28;834;-69
2022/10/13 01:12:21;;;;;;;;;;;;;;;;;;5063262;28;842;-69
2022/10/13 01:15:01;;;;;;;;;;;;;;;;;;5063121;28;1294;-69
2022/10/13 01:17:36;;;;;;;;;;;;;;;;;;5062070;28;1056;-69
2022/10/13 01:20:01;;;;;;;;;;;;;;;;;;5064006;28;767;-70
2022/10/13 01:22:45;;;;;;;;;;;;;;;;;;5062974;28;925;-69
2022/10/13 01:25:10;;;;;;;;;;;;;;;;;;5062870;28;1905;-69
2022/10/13 01:27:54;;;;;;;;;;;;;;;;;;5063222;28;775;-69
2022/10/13 01:30:20;;;;;;;;;;;;;;;;;;5063224;28;985;-70
2022/10/13 01:33:08;;;;;;;;;;;;;;;;;;5063181;28;751;-69
2022/10/13 01:35:52;;;;;;;;;;;;;;;;;;5062793;28;1204;-69
2022/10/13 01:38:35;;;;;;;;;;;;;;;;;;5062926;28;808;-69
2022/10/13 01:41:11;;;;;;;;;;;;;;;;;;5062809;28;934;-69
2022/10/13 01:43:39;;;;;;;;;;;;;;;;;;5063135;28;819;-69
2022/10/13 01:46:10;;;;;;;;;;;;;;;;;;5062547;28;1894;-69
2022/10/13 01:48:38;;;;;;;;;;;;;;;;;;5062819;28;783;-70
2022/10/13 01:51:04;;;;;;;;;;;;;;;;;;5062824;28;830;-70
2022/10/13 01:53:29;;;;;;;;;;;;;;;;;;5062667;28;902;-69
2022/10/13 01:55:56;;;;;;;;;;;;;;;;;;5062385;28;1207;-70
2022/10/13 01:58:22;;;;;;;;;;;;;;;;;;5062521;28;989;-70
2022/10/13 02:01:02;;;;;;;;;;;;;;;;;;5061133;28;1488;-70
2022/10/13 02:03:48;;;;;;;;;;;;;;;;;;5062416;28;929;-69
2022/10/13 02:06:16;;;;;;;;;;;;;;;;;;5062269;28;1902;-70
2022/10/13 02:08:47;;;;;;;;;;;;;;;;;;5062498;28;885;-69
2022/10/13 02:11:17;;;;;;;;;;;;;;;;;;5062453;28;902;-69
2022/10/13 02:13:51;;;;;;;;;;;;;;;;;;5062408;28;880;-69
2022/10/13 02:16:19;;;;;;;;;;;;;;;;;;5062082;28;1290;-69
2022/10/13 02:18:44;;;;;;;;;;;;;;;;;;5062384;28;854;-69
2022/10/13 02:21:09;;;;;;;;;;;;;;;;;;5062173;28;941;-69
2022/10/13 02:23:35;;;;;;;;;;;;;;;;;;5062157;28;985;-68
2022/10/13 02:26:00;;;;;;;;;;;;;;;;;;5062000;28;1898;-69
2022/10/13 02:28:25;;;;;;;;;;;;;;;;;;5060728;28;1174;-69
2022/10/13 02:30:51;;;;;;;;;;;;;;;;;;5062080;28;1204;-69
2022/10/13 02:33:16;;;;;;;;;;;;;;;;;;5062015;28;814;-69
2022/10/13 02:35:42;;;;;;;;;;;;;;;;;;5061775;28;1271;-69
2022/10/13 02:38:07;;;;;;;;;;;;;;;;;;5061952;28;790;-69
2022/10/13 02:40:32;;;;;;;;;;;;;;;;;;5061960;28;791;-69
2022/10/13 02:42:57;;;;;;;;;;;;;;;;;;5062005;28;858;-69
2022/10/13 02:45:23;;;;;;;;;;;;;;;;;;5061463;28;1968;-69
2022/10/13 02:47:48;;;;;;;;;;;;;;;;;;5061846;28;1071;-69
2022/10/13 02:50:13;;;;;;;;;;;;;;;;;;5061701;28;854;-69
2022/10/13 02:52:38;;;;;;;;;;;;;;;;;;5061991;28;853;-68
2022/10/13 02:55:04;;;;;;;;;;;;;;;;;;5061314;28;1180;-69
2022/10/13 02:57:29;;;;;;;;;;;;;;;;;;5061823;28;1060;-69
2022/10/13 02:59:54;;;;;;;;;;;;;;;;;;5061757;28;878;-68
2022/10/13 03:02:19;;;;;;;;;;;;;;;;;;5061546;28;989;-69
2022/10/13 03:04:45;;;;;;;;;;;;;;;;;;5061116;28;1973;-69
2022/10/13 03:07:11;;;;;;;;;;;;;;;;;;5061592;28;886;-69
2022/10/13 03:09:36;;;;;;;;;;;;;;;;;;5061687;28;866;-69
2022/10/13 03:12:01;;;;;;;;;;;;;;;;;;5061455;28;984;-69
2022/10/13 03:14:26;;;;;;;;;;;;;;;;;;5060765;28;1203;-69
2022/10/13 03:16:51;;;;;;;;;;;;;;;;;;5061345;28;822;-69
2022/10/13 03:19:16;;;;;;;;;;;;;;;;;;5061380;28;996;-69
2022/10/13 03:21:42;;;;;;;;;;;;;;;;;;5061490;28;814;-69
2022/10/13 03:24:07;;;;;;;;;;;;;;;;;;5061339;28;1176;-69
2022/10/13 03:26:32;;;;;;;;;;;;;;;;;;5061064;28;1889;-69
2022/10/13 03:28:58;;;;;;;;;;;;;;;;;;5061373;28;1052;-69
2022/10/13 03:31:23;;;;;;;;;;;;;;;;;;5061055;28;921;-69
2022/10/13 03:33:48;;;;;;;;;;;;;;;;;;5061238;28;981;-69
2022/10/13 03:36:13;;;;;;;;;;;;;;;;;;5060798;28;1195;-69
2022/10/13 03:38:38;;;;;;;;;;;;;;;;;;5061264;28;842;-69
2022/10/13 03:41:07;;;;;;;;;;;;;;;;;;5061030;28;933;-69
2022/10/13 03:43:33;;;;;;;;;;;;;;;;;;5061131;28;835;-69
2022/10/13 03:45:59;;;;;;;;;;;;;;;;;;5060463;28;1889;-69
2022/10/13 03:48:25;;;;;;;;;;;;;;;;;;5061415;28;827;-69
2022/10/13 03:50:51;;;;;;;;;;;;;;;;;;5060945;28;1113;-68
2022/10/13 03:53:16;;;;;;;;;;;;;;;;;;5061102;28;838;-69
2022/10/13 03:55:47;;;;;;;;;;;;;;;;;;5060340;28;1191;-68
2022/10/13 03:58:12;;;;;;;;;;;;;;;;;;5061144;28;901;-69
2022/10/13 04:00:37;;;;;;;;;;;;;;;;;;5060701;28;992;-69
2022/10/13 04:03:02;;;;;;;;;;;;;;;;;;5060896;28;861;-69
2022/10/13 04:05:28;;;;;;;;;;;;;;;;;;5060310;28;1973;-69
2022/10/13 04:07:53;;;;;;;;;;;;;;;;;;5060910;28;1001;-68
2022/10/13 04:10:18;;;;;;;;;;;;;;;;;;5060745;28;893;-69
2022/10/13 04:12:43;;;;;;;;;;;;;;;;;;5060699;28;1060;-69
2022/10/13 04:15:09;;;;;;;;;;;;;;;;;;5060279;28;1199;-69
2022/10/13 04:17:34;;;;;;;;;;;;;;;;;;5060821;28;815;-69
2022/10/13 04:19:59;;;;;;;;;;;;;;;;;;5060992;28;807;-69
2022/10/13 04:22:24;;;;;;;;;;;;;;;;;;5060379;28;930;-69
2022/10/13 04:24:49;;;;;;;;;;;;;;;;;;5060324;28;1897;-69
2022/10/13 04:27:17;;;;;;;;;;;;;;;;;;5061566;28;882;-69
2022/10/13 04:29:42;;;;;;;;;;;;;;;;;;5064104;28;935;-69
2022/10/13 04:32:08;;;;;;;;;;;;;;;;;;5063865;28;890;-69
2022/10/13 04:34:33;;;;;;;;;;;;;;;;;;5063949;28;1223;-69
2022/10/13 04:36:58;;;;;;;;;;;;;;;;;;5063978;28;937;-69
2022/10/13 04:39:23;;;;;;;;;;;;;;;;;;5064007;28;912;-69
2022/10/13 04:41:49;;;;;;;;;;;;;;;;;;5063811;28;1000;-69
2022/10/13 04:44:14;;;;;;;;;;;;;;;;;;5063567;28;1910;-69
2022/10/13 04:46:39;;;;;;;;;;;;;;;;;;5063522;28;806;-69
2022/10/13 04:49:05;;;;;;;;;;;;;;;;;;5063872;28;981;-69
2022/10/13 04:51:30;;;;;;;;;;;;;;;;;;5063651;28;878;-69
2022/10/13 04:53:56;;;;;;;;;;;;;;;;;;5063614;28;819;-69
2022/10/13 04:56:22;;;;;;;;;;;;;;;;;;5062884;28;1231;-70
2022/10/13 04:58:47;;;;;;;;;;;;;;;;;;5063622;28;961;-69
2022/10/13 05:01:17;;;;;;;;;;;;;;;;;;5063544;28;874;-69
2022/10/13 05:03:42;;;;;;;;;;;;;;;;;;5063547;28;1250;-69
2022/10/13 05:06:14;;;;;;;;;;;;;;;;;;5063107;28;2008;-69
2022/10/13 05:08:40;;;;;;;;;;;;;;;;;;5063574;28;941;-69
2022/10/13 05:11:05;;;;;;;;;;;;;;;;;;5063435;28;819;-69
2022/10/13 05:13:30;;;;;;;;;;;;;;;;;;5063267;28;802;-69
2022/10/13 05:15:55;;;;;;;;;;;;;;;;;;5063138;28;1184;-69
2022/10/13 05:18:21;;;;;;;;;;;;;;;;;;5063440;28;828;-69
2022/10/13 05:20:46;;;;;;;;;;;;;;;;;;5063317;28;985;-69
2022/10/13 05:23:12;;;;;;;;;;;;;;;;;;5063107;28;787;-69
2022/10/13 05:25:37;;;;;;;;;;;;;;;;;;5063133;28;1901;-69
2022/10/13 05:28:03;;;;;;;;;;;;;;;;;;5063170;28;850;-69
2022/10/13 05:30:28;;;;;;;;;;;;;;;;;;5063173;28;1778;-69
2022/10/13 05:32:53;;;;;;;;;;;;;;;;;;5062931;28;921;-69
2022/10/13 05:35:18;;;;;;;;;;;;;;;;;;5062879;28;1196;-69
2022/10/13 05:37:44;;;;;;;;;;;;;;;;;;5062565;28;942;-68
2022/10/13 05:40:09;;;;;;;;;;;;;;;;;;5063046;28;866;-69
2022/10/13 05:42:35;;;;;;;;;;;;;;;;;;5062784;28;819;-69
2022/10/13 05:45:00;;;;;;;;;;;;;;;;;;5062897;28;1960;-69
2022/10/13 05:47:27;;;;;;;;;;;;;;;;;;5062728;28;996;-69
2022/10/13 05:49:52;;;;;;;;;;;;;;;;;;5062849;28;822;-69
2022/10/13 05:52:17;;;;;;;;;;;;;;;;;;5062710;28;945;-69
2022/10/13 05:54:54;;;;;;;;;;;;;;;;;;5062340;28;1172;-69
2022/10/13 05:57:20;;;;;;;;;;;;;;;;;;5062552;28;917;-69
2022/10/13 05:59:57;;;;;;;;;;;;;;;;;;5062862;28;795;-69
2022/10/13 06:02:24;;;;;;;;;;;;;;;;;;5062398;28;851;-69
2022/10/13 06:04:50;;;;;;;;;;;;;;;;;;5062119;28;1897;-69
2022/10/13 06:07:16;;;;;;;;;;;;;;;;;;5062557;28;886;-69
2022/10/13 06:09:41;;;;;;;;;;;;;;;;;;5062419;28;894;-69
2022/10/13 06:12:07;;;;;;;;;;;;;;;;;;5062586;28;906;-69
2022/10/13 06:14:33;;;;;;;;;;;;;;;;;;5062011;28;1266;-69
2022/10/13 06:16:58;;;;;;;;;;;;;;;;;;5062407;28;858;-68
2022/10/13 06:19:23;;;;;;;;;;;;;;;;;;5062300;28;981;-69
2022/10/13 06:21:48;;;;;;;;;;;;;;;;;;5062341;28;830;-69
2022/10/13 06:24:14;;;;;;;;;;;;;;;;;;5061942;28;1195;-69
2022/10/13 06:26:39;;;;;;;;;;;;;;;;;;5061976;28;1961;-69
2022/10/13 06:29:04;;;;;;;;;;;;;;;;;;5062208;28;846;-69
2022/10/13 06:31:29;;;;;;;;;;;;;;;;;;5062202;28;858;-69
2022/10/13 06:33:55;;;;;;;;;;;;;;;;;;5061967;28;1156;-69
2022/10/13 06:36:20;;;;;;;;;;;;;;;;;;5061875;28;1156;-69
2022/10/13 06:38:45;;;;;;;;;;;;;;;;;;5062073;28;846;-69
2022/10/13 06:41:13;;;;;;;;;;;;;;;;;;5062352;28;847;-69
2022/10/13 06:43:38;;;;;;;;;;;;;;;;;;5061174;28;811;-69
2022/10/13 06:46:03;;;;;;;;;;;;;;;;;;5060149;28;1905;-69
2022/10/13 06:48:28;;;;;;;;;;;;;;;;;;5062030;28;890;-69
2022/10/13 06:50:54;;;;;;;;;;;;;;;;;;5060998;28;893;-69
2022/10/13 06:53:19;;;;;;;;;;;;;;;;;;5061709;28;855;-69
2022/10/13 06:55:44;;;;;;;;;;;;;;;;;;5068496;22;3830;-64
2022/10/13 06:58:10;;;;;;;;;;;;;;;;;;5042081;28;814;-64
2022/10/13 07:00:35;;;;;;;;;;;;;;;;;;5041600;28;851;-64
2022/10/13 07:03:01;;;;;;;;;;;;;;;;;;5041957;28;1052;-65
2022/10/13 07:05:26;;;;;;;;;;;;;;;;;;5061054;28;1987;-64
2022/10/13 07:07:52;;;;;;;;;;;;;;;;;;5061694;28;794;-64
2022/10/13 07:10:18;;;;;;;;;;;;;;;;;;5061597;28;818;-64
2022/10/13 07:12:43;;;;;;;;;;;;;;;;;;5061315;28;997;-64
2022/10/13 07:15:08;;;;;;;;;;;;;;;;;;5061135;28;1169;-64
2022/10/13 07:17:34;;;;;;;;;;;;;;;;;;5061483;28;897;-64
2022/10/13 07:20:00;;;;;;;;;;;;;;;;;;5061371;28;839;-64
2022/10/13 07:22:25;;;;;;;;;;;;;;;;;;5061589;28;846;-64
2022/10/13 07:24:50;;;;;;;;;;;;;;;;;;5060853;28;1962;-65
2022/10/13 07:27:16;;;;;;;;;;;;;;;;;;5061262;28;898;-64
2022/10/13 07:29:41;;;;;;;;;;;;;;;;;;5061350;28;1048;-65
2022/10/13 07:32:06;;;;;;;;;;;;;;;;;;5061177;28;930;-64
2022/10/13 07:34:31;;;;;;;;;;;;;;;;;;5060856;28;985;-64
2022/10/13 07:36:56;;;;;;;;;;;;;;;;;;5061047;28;1233;-64
2022/10/13 07:39:21;;;;;;;;;;;;;;;;;;5061238;28;929;-64
2022/10/13 07:41:47;;;;;;;;;;;;;;;;;;5061219;28;837;-65
2022/10/13 07:44:12;;;;;;;;;;;;;;;;;;5060975;28;1004;-64
2022/10/13 07:46:37;;;;;;;;;;;;;;;;;;5060681;28;1957;-64
2022/10/13 07:49:02;;;;;;;;;;;;;;;;;;5061063;28;810;-64
2022/10/13 07:51:27;;;;;;;;;;;;;;;;;;5060859;28;910;-64
2022/10/13 07:53:53;;;;;;;;;;;;;;;;;;5061184;28;855;-64
2022/10/13 07:56:18;;;;;;;;;;;;;;;;;;5060641;28;1163;-64
2022/10/13 07:58:44;;;;;;;;;;;;;;;;;;5061163;28;839;-65
2022/10/13 08:01:09;;;;;;;;;;;;;;;;;;5061897;28;969;-64
2022/10/13 08:03:35;;;;;;;;;;;;;;;;;;5064386;28;1009;-64
2022/10/13 08:06:01;;;;;;;;;;;;;;;;;;5064330;28;1969;-64
2022/10/13 08:08:27;;;;;;;;;;;;;;;;;;5064679;28;791;-64
2022/10/13 08:10:52;;;;;;;;;;;;;;;;;;5064658;28;807;-64
2022/10/13 08:13:18;;;;;;;;;;;;;;;;;;5064282;28;830;-64
2022/10/13 08:15:43;;;;;;;;;;;;;;;;;;5063985;28;1259;-64
2022/10/13 08:18:09;;;;;;;;;;;;;;;;;;5064319;28;1047;-64
2022/10/13 08:20:34;;;;;;;;;;;;;;;;;;5064229;28;977;-64
2022/10/13 08:23:00;;;;;;;;;;;;;;;;;;5064131;28;902;-64
2022/10/13 08:25:25;;;;;;;;;;;;;;;;;;5063715;28;1957;-64
2022/10/13 08:27:50;;;;;;;;;;;;;;;;;;5064090;28;866;-64
2022/10/13 08:30:15;;;;;;;;;;;;;;;;;;5064158;28;989;-64
2022/10/13 08:32:40;;;;;;;;;;;;;;;;;;5063797;28;846;-64
2022/10/13 08:35:06;;;;;;;;;;;;;;;;;;5063502;28;1286;-64
2022/10/13 08:37:31;;;;;;;;;;;;;;;;;;5063848;28;934;-64
2022/10/13 08:39:56;;;;;;;;;;;;;;;;;;5064032;28;1012;-64
2022/10/13 08:42:22;;;;;;;;;;;;;;;;;;5063767;28;914;-64
2022/10/13 08:44:49;;;;;;;;;;;;;;;;;;5063366;28;1886;-64
2022/10/13 08:47:19;;;;;;;;;;;;;;;;;;5063807;28;1223;-64
2022/10/13 08:49:45;;;;;;;;;;;;;;;;;;5063636;28;1058;-64
2022/10/13 08:52:20;;;;;;;;;;;;;;;;;;5063837;28;842;-64
2022/10/13 08:54:46;;;;;;;;;;;;;;;;;;5063619;28;806;-64
2022/10/13 08:57:11;;;;;;;;;;;;;;;;;;5063507;28;1172;-64
2022/10/13 08:59:36;;;;;;;;;;;;;;;;;;5063586;28;838;-64
2022/10/13 09:02:04;;;;;;;;;;;;;;;;;;5063569;28;981;-64
2022/10/13 09:04:32;;;;;;;;;;;;;;;;;;5062925;28;1952;-64
2022/10/13 09:07:12;;;;;;;;;;;;;;;;;;5063373;28;1172;-64
2022/10/13 09:09:37;;;;;;;;;;;;;;;;;;5063415;28;854;-64
2022/10/13 09:12:03;;;;;;;;;;;;;;;;;;5063451;28;961;-64
2022/10/13 09:14:32;;;;;;;;;;;;;;;;;;5062323;28;819;-65
2022/10/13 09:17:15;;;;;;;;;;;;;;;;;;5063299;28;1235;-64
2022/10/13 09:19:40;;;;;;;;;;;;;;;;;;5063237;28;972;-64
2022/10/13 09:22:14;;;;;;;;;;;;;;;;;;5063230;28;929;-64
2022/10/13 09:24:39;;;;;;;;;;;;;;;;;;5062752;28;1943;-64
2022/10/13 09:27:13;;;;;;;;;;;;;;;;;;5063152;28;1156;-64
2022/10/13 09:29:39;;;;;;;;;;;;;;;;;;5062988;28;850;-64
2022/10/13 09:32:12;;;;;;;;;;;;;;;;;;5063330;28;819;-65
2022/10/13 09:34:38;;;;;;;;;;;;;;;;;;5062818;28;898;-64
2022/10/13 09:37:04;;;;;;;;;;;;;;;;;;5062963;28;1164;-64
2022/10/13 09:39:30;;;;;;;;;;;;;;;;;;5062827;28;871;-64
2022/10/13 09:42:14;;;;;;;;;;;;;;;;;;5063203;28;838;-64
2022/10/13 09:44:40;;;;;;;;;;;;;;;;;;5062436;28;1897;-64
2022/10/13 09:47:05;;;;;;;;;;;;;;;;;;5062900;28;1250;-64
2022/10/13 09:49:36;;;;;;;;;;;;;;;;;;5062806;28;810;-64
2022/10/13 09:52:06;;;;;;;;;;;;;;;;;;5062734;28;885;-65
2022/10/13 09:54:44;;;;;;;;;;;;;;;;;;5062509;28;846;-65
2022/10/13 09:57:09;;;;;;;;;;;;;;;;;;5062653;28;1137;-64
2022/10/13 09:59:37;;;;;;;;;;;;;;;;;;5062848;28;842;-64
2022/10/13 10:02:12;;;;;;;;;;;;;;;;;;5062611;28;815;-64
2022/10/13 10:04:41;;;;;;;;;;;;;;;;;;5062203;28;1893;-65
2022/10/13 10:07:11;;;;;;;;;;;;;;;;;;5062497;28;1262;-64
2022/10/13 10:09:56;;;;;;;;;;;;;;;;;;5044480;28;1518;-64
2022/10/13 10:12:24;;;;;;;;;;;;;;;;;;5062259;28;811;-64
2022/10/13 10:14:49;;;;;;;;;;;;;;;;;;5062090;28;827;-64
2022/10/13 10:17:36;;;;;;;;;;;;;;;;;;5062348;28;1172;-65
2022/10/13 10:20:10;;;;;;;;;;;;;;;;;;5062348;28;1016;-64
2022/10/13 10:22:43;;;;;;;;;;;;;;;;;;5062376;28;803;-64
2022/10/13 10:25:21;;;;;;;;;;;;;;;;;;5060549;28;1953;-64
2022/10/13 10:28:04;;;;;;;;;;;;;;;;;;5062368;28;890;-64
2022/10/13 10:30:30;;;;;;;;;;;;;;;;;;5062532;28;818;-64
2022/10/13 10:33:02;;;;;;;;;;;;;;;;;;5062461;28;826;-65
2022/10/13 10:35:47;;;;;;;;;;;;;;;;;;5061721;28;1179;-64
2022/10/13 10:38:14;;;;;;;;;;;;;;;;;;5062189;28;838;-64
2022/10/13 10:40:55;;;;;;;;;;;;;;;;;;5062050;28;822;-64
2022/10/13 10:43:34;;;;;;;;;;;;;;;;;;5062136;28;1080;-64
2022/10/13 10:45:59;;;;;;;;;;;;;;;;;;5061475;28;1951;-65
2022/10/13 10:48:35;;;;;;;;;;;;;;;;;;5061840;28;882;-65
2022/10/13 10:51:01;;;;;;;;;;;;;;;;;;5061609;28;874;-65
2022/10/13 10:53:37;;;;;;;;;;;;;;;;;;5061969;28;854;-65
2022/10/13 10:56:11;;;;;;;;;;;;;;;;;;5061316;28;1179;-65
2022/10/13 10:58:56;;;;;;;;;;;;;;;;;;5061880;28;866;-65
2022/10/13 11:01:21;;;;;;;;;;;;;;;;;;5061921;28;874;-65
2022/10/13 11:03:54;;;;;;;;;;;;;;;;;;5061832;28;885;-65
2022/10/13 11:06:33;;;;;;;;;;;;;;;;;;5061147;28;1963;-64
2022/10/13 11:08:58;;;;;;;;;;;;;;;;;;5061714;28;976;-65
2022/10/13 11:11:30;;;;;;;;;;;;;;;;;;5061848;28;834;-65
2022/10/13 11:13:55;;;;;;;;;;;;;;;;;;5061716;28;854;-65
2022/10/13 11:16:38;;;;;;;;;;;;;;;;;;5061046;28;1116;-64
2022/10/13 11:19:24;;;;;;;;;;;;;;;;;;5061755;28;827;-65
2022/10/13 11:21:58;;;;;;;;;;;;;;;;;;5060994;28;1012;-65
2022/10/13 11:24:32;;;;;;;;;;;;;;;;;;5061152;28;803;-65
2022/10/13 11:27:06;;;;;;;;;;;;;;;;;;5061242;28;1331;-65
2022/10/13 11:29:56;;;;;;;;;;;;;;;;;;5061786;28;866;-65
2022/10/13 11:32:24;;;;;;;;;;;;;;;;;;5061268;28;826;-65
2022/10/13 11:34:58;;;;;;;;;;;;;;;;;;5061048;28;906;-65
2022/10/13 11:37:27;;;;;;;;;;;;;;;;;;5060821;28;865;-65
2022/10/13 11:40:00;;;;;;;;;;;;;;;;;;5061267;28;1009;-65
2022/10/13 11:42:28;;;;;;;;;;;;;;;;;;5060878;28;835;-65
2022/10/13 11:45:12;;;;;;;;;;;;;;;;;;5060766;28;1894;-65
2022/10/13 11:47:54;;;;;;;;;;;;;;;;;;5043399;28;1109;-65
2022/10/13 11:50:24;;;;;;;;;;;;;;;;;;5061006;28;841;-65
2022/10/13 11:52:59;;;;;;;;;;;;;;;;;;5060849;28;1012;-65
2022/10/13 11:55:39;;;;;;;;;;;;;;;;;;5060612;28;1303;-65
2022/10/13 11:58:08;;;;;;;;;;;;;;;;;;5060859;28;981;-65
2022/10/13 12:00:34;;;;;;;;;;;;;;;;;;5060711;28;911;-65
2022/10/13 12:02:59;;;;;;;;;;;;;;;;;;5060756;28;862;-65
2022/10/13 12:05:28;;;;;;;;;;;;;;;;;;5060421;28;1913;-65
2022/10/13 12:07:55;;;;;;;;;;;;;;;;;;5060681;28;934;-65
2022/10/13 12:10:29;;;;;;;;;;;;;;;;;;5060862;28;885;-65
2022/10/13 12:12:54;;;;;;;;;;;;;;;;;;5042657;28;945;-65
2022/10/13 12:15:27;;;;;;;;;;;;;;;;;;5060468;28;1295;-65
2022/10/13 12:17:52;;;;;;;;;;;;;;;;;;5060637;28;862;-65
2022/10/13 12:20:22;;;;;;;;;;;;;;;;;;5060693;28;899;-65
2022/10/13 12:22:48;;;;;;;;;;;;;;;;;;5060413;28;993;-65
2022/10/13 12:25:17;;;;;;;;;;;;;;;;;;5060219;28;1983;-65
2022/10/13 12:27:53;;;;;;;;;;;;;;;;;;5060532;28;839;-65
2022/10/13 12:30:21;;;;;;;;;;;;;;;;;;5060577;28;968;-65
2022/10/13 12:32:50;;;;;;;;;;;;;;;;;;5060405;28;857;-65
2022/10/13 12:35:19;;;;;;;;;;;;;;;;;;5060147;28;1255;-64
2022/10/13 12:37:44;;;;;;;;;;;;;;;;;;5060652;28;1005;-65
2022/10/13 12:40:14;;;;;;;;;;;;;;;;;;5060526;28;886;-65
2022/10/13 12:42:39;;;;;;;;;;;;;;;;;;5060268;28;902;-65
2022/10/13 12:45:05;;;;;;;;;;;;;;;;;;5059929;28;1897;-65
2022/10/13 12:47:38;;;;;;;;;;;;;;;;;;5060325;28;866;-65
2022/10/13 12:50:19;;;;;;;;;;;;;;;;;;5063830;28;842;-65
2022/10/13 12:52:44;;;;;;;;;;;;;;;;;;5063655;28;846;-64
2022/10/13 12:57:46;;;;;;;;;;;;;;;;;;5061108;28;1410;-69
2022/10/13 13:00:17;;;;;;;;;;;;;;;;;;5063850;28;921;-69
2022/10/13 13:02:48;;;;;;;;;;;;;;;;;;5043426;28;977;-69
2022/10/13 13:05:34;;;;;;;;;;;;;;;;;;5043425;28;1957;-69
2022/10/13 13:08:00;;;;;;;;;;;;;;;;;;5043053;28;958;-69
2022/10/13 13:10:25;;;;;;;;;;;;;;;;;;5043372;28;1004;-70
2022/10/13 13:12:51;;;;;;;;;;;;;;;;;;5043273;28;1032;-70
2022/10/13 13:15:29;;;;;;;;;;;;;;;;;;5043048;28;1160;-70
2022/10/13 13:18:14;;;;;;;;;;;;;;;;;;5043306;28;886;-70
2022/10/13 13:20:39;;;;;;;;;;;;;;;;;;5025454;28;1074;-69
2022/10/13 13:23:05;;;;;;;;;;;;;;;;;;5043047;28;803;-69
2022/10/13 13:25:30;;;;;;;;;;;;;;;;;;5042860;28;1902;-70
2022/10/13 13:27:55;;;;;;;;;;;;;;;;;;5043172;28;889;-69
2022/10/13 13:30:21;;;;;;;;;;;;;;;;;;5043193;28;862;-69
2022/10/13 13:32:46;;;;;;;;;;;;;;;;;;5043075;28;1076;-70
2022/10/13 13:35:12;;;;;;;;;;;;;;;;;;5042646;28;1248;-70
2022/10/13 13:37:43;;;;;;;;;;;;;;;;;;5043373;28;740;-69
2022/10/13 13:40:14;;;;;;;;;;;;;;;;;;5042981;28;838;-69
2022/10/13 13:42:39;;;;;;;;;;;;;;;;;;5043022;28;811;-70
2022/10/13 13:45:04;;;;;;;;;;;;;;;;;;5042541;28;1882;-70
2022/10/13 13:47:29;;;;;;;;;;;;;;;;;;5042797;28;1189;-70
2022/10/13 13:49:55;;;;;;;;;;;;;;;;;;5042756;28;970;-70
2022/10/13 13:52:21;;;;;;;;;;;;;;;;;;5042823;28;838;-70
2022/10/13 13:54:47;;;;;;;;;;;;;;;;;;5042530;28;716;-70
2022/10/13 13:57:12;;;;;;;;;;;;;;;;;;5042804;28;1152;-70
2022/10/13 13:59:38;;;;;;;;;;;;;;;;;;5042453;28;877;-70
2022/10/13 14:02:04;;;;;;;;;;;;;;;;;;5042448;28;819;-70
2022/10/13 14:04:29;;;;;;;;;;;;;;;;;;5024581;28;1586;-70
2022/10/13 14:06:54;;;;;;;;;;;;;;;;;;5042622;28;1955;-70
2022/10/13 14:09:20;;;;;;;;;;;;;;;;;;5042641;28;1005;-70
2022/10/13 14:11:45;;;;;;;;;;;;;;;;;;5042570;28;1064;-70
2022/10/13 14:14:10;;;;;;;;;;;;;;;;;;5042265;28;799;-70
2022/10/13 14:16:36;;;;;;;;;;;;;;;;;;5042158;28;1172;-70
2022/10/13 14:19:01;;;;;;;;;;;;;;;;;;5024567;28;1317;-70
2022/10/13 14:21:26;;;;;;;;;;;;;;;;;;5042460;28;1032;-70
2022/10/13 14:23:51;;;;;;;;;;;;;;;;;;5042352;28;870;-70
2022/10/13 14:26:16;;;;;;;;;;;;;;;;;;5041812;28;1953;-70
2022/10/13 14:28:42;;;;;;;;;;;;;;;;;;5042405;28;879;-70
2022/10/13 14:31:07;;;;;;;;;;;;;;;;;;5042143;28;1001;-70
2022/10/13 14:33:33;;;;;;;;;;;;;;;;;;5042211;28;854;-70
2022/10/13 14:36:01;;;;;;;;;;;;;;;;;;5041695;28;1178;-71
2022/10/13 14:38:27;;;;;;;;;;;;;;;;;;5042544;28;1035;-71
2022/10/13 14:40:56;;;;;;;;;;;;;;;;;;5042398;28;858;-69
2022/10/13 14:43:21;;;;;;;;;;;;;;;;;;5042066;28;882;-70
2022/10/13 14:45:46;;;;;;;;;;;;;;;;;;5041406;28;1952;-70
2022/10/13 14:48:13;;;;;;;;;;;;;;;;;;5042050;28;779;-70
2022/10/13 14:50:39;;;;;;;;;;;;;;;;;;5041806;28;925;-70
2022/10/13 14:53:04;;;;;;;;;;;;;;;;;;5041912;28;929;-70
2022/10/13 14:55:30;;;;;;;;;;;;;;;;;;5041365;28;1297;-70
2022/10/13 14:57:55;;;;;;;;;;;;;;;;;;5041795;28;815;-70
2022/10/13 15:00:20;;;;;;;;;;;;;;;;;;5041596;28;958;-70
2022/10/13 15:02:45;;;;;;;;;;;;;;;;;;5041709;28;993;-70
2022/10/13 15:05:10;;;;;;;;;;;;;;;;;;5041155;28;2018;-70
2022/10/13 15:07:36;;;;;;;;;;;;;;;;;;5041802;28;1029;-70
2022/10/13 15:10:01;;;;;;;;;;;;;;;;;;5041539;28;882;-69
2022/10/13 15:12:26;;;;;;;;;;;;;;;;;;5041050;28;1044;-70
2022/10/13 15:14:52;;;;;;;;;;;;;;;;;;5041203;28;811;-69
2022/10/13 15:17:17;;;;;;;;;;;;;;;;;;5023627;28;1172;-69
2022/10/13 15:19:42;;;;;;;;;;;;;;;;;;5041613;28;787;-69
2022/10/13 15:22:07;;;;;;;;;;;;;;;;;;5041261;28;1028;-69
2022/10/13 15:24:32;;;;;;;;;;;;;;;;;;5023375;28;1379;-70
2022/10/13 15:26:57;;;;;;;;;;;;;;;;;;5041177;28;1947;-69
2022/10/13 15:29:23;;;;;;;;;;;;;;;;;;5041328;28;1001;-69
2022/10/13 15:31:48;;;;;;;;;;;;;;;;;;5041492;28;926;-69
2022/10/13 15:34:13;;;;;;;;;;;;;;;;;;5041202;28;897;-70
2022/10/13 15:36:39;;;;;;;;;;;;;;;;;;5040868;28;1273;-69
2022/10/13 15:39:04;;;;;;;;;;;;;;;;;;5023533;28;1521;-69
2022/10/13 15:41:29;;;;;;;;;;;;;;;;;;5041122;28;862;-69
2022/10/13 15:43:55;;;;;;;;;;;;;;;;;;5041191;28;815;-70
2022/10/13 15:46:22;;;;;;;;;;;;;;;;;;5040606;28;1894;-69
2022/10/13 15:48:48;;;;;;;;;;;;;;;;;;5041121;28;877;-70
2022/10/13 15:51:14;;;;;;;;;;;;;;;;;;5041069;28;815;-69
2022/10/13 15:53:39;;;;;;;;;;;;;;;;;;5041024;28;799;-70
2022/10/13 15:56:05;;;;;;;;;;;;;;;;;;5022596;28;1718;-70
2022/10/13 15:58:30;;;;;;;;;;;;;;;;;;5041012;28;898;-71
2022/10/13 16:00:55;;;;;;;;;;;;;;;;;;5040898;28;1002;-70
2022/10/13 16:03:20;;;;;;;;;;;;;;;;;;5040934;28;907;-70
2022/10/13 16:05:46;;;;;;;;;;;;;;;;;;5040764;28;1898;-70
2022/10/13 16:08:11;;;;;;;;;;;;;;;;;;5040728;28;910;-70
2022/10/13 16:10:37;;;;;;;;;;;;;;;;;;5040834;28;1001;-70
2022/10/13 16:13:02;;;;;;;;;;;;;;;;;;5040748;28;1076;-70
2022/10/13 16:15:28;;;;;;;;;;;;;;;;;;5040427;28;1183;-71
2022/10/13 16:17:53;;;;;;;;;;;;;;;;;;5040709;28;838;-69
2022/10/13 16:20:18;;;;;;;;;;;;;;;;;;5040785;28;783;-70
2022/10/13 16:22:43;;;;;;;;;;;;;;;;;;5042419;28;949;-70
2022/10/13 16:25:09;;;;;;;;;;;;;;;;;;5043758;28;1898;-70
2022/10/13 16:27:35;;;;;;;;;;;;;;;;;;5026384;28;1400;-70
2022/10/13 16:30:00;;;;;;;;;;;;;;;;;;5044121;28;993;-70
2022/10/13 16:32:25;;;;;;;;;;;;;;;;;;5026172;28;1614;-69
2022/10/13 16:34:50;;;;;;;;;;;;;;;;;;5043716;28;977;-70
2022/10/13 16:37:15;;;;;;;;;;;;;;;;;;5043822;28;1213;-69
2022/10/13 16:39:40;;;;;;;;;;;;;;;;;;5044087;28;823;-69
2022/10/13 16:42:06;;;;;;;;;;;;;;;;;;5043850;28;942;-70
2022/10/13 16:44:31;;;;;;;;;;;;;;;;;;5043601;28;929;-69
2022/10/13 16:46:57;;;;;;;;;;;;;;;;;;5043694;28;1898;-72
2022/10/13 16:49:22;;;;;;;;;;;;;;;;;;5043959;28;858;-70
2022/10/13 16:51:47;;;;;;;;;;;;;;;;;;5043980;28;815;-70
2022/10/13 16:54:12;;;;;;;;;;;;;;;;;;5043607;28;791;-70
2022/10/13 16:56:38;;;;;;;;;;;;;;;;;;5043353;28;1153;-70
2022/10/13 16:59:04;;;;;;;;;;;;;;;;;;5043581;28;807;-69
2022/10/13 17:01:30;;;;;;;;;;;;;;;;;;5043573;28;997;-69
2022/10/13 17:03:55;;;;;;;;;;;;;;;;;;5043527;28;903;-70
2022/10/13 17:06:22;;;;;;;;;;;;;;;;;;5043302;28;1901;-70
2022/10/13 17:08:47;;;;;;;;;;;;;;;;;;5043532;28;819;-70
2022/10/13 17:11:16;;;;;;;;;;;;;;;;;;5043550;28;835;-70
2022/10/13 17:13:41;;;;;;;;;;;;;;;;;;5043326;28;933;-70
2022/10/13 17:16:07;;;;;;;;;;;;;;;;;;5043117;28;1172;-70
2022/10/13 17:18:32;;;;;;;;;;;;;;;;;;5043182;28;978;-70